ASN logo
ASN Wikibase Occurrence # 224786
Last updated: 9 March 2020
This information is added by users of ASN. Neither ASN nor the Flight Safety Foundation are responsible for the completeness or correctness of this information. If you feel this information is incomplete or incorrect, you can submit corrected information.

Date:06-MAY-2019
Time:06:25 UTC
Type:Silhouette image of generic B738 model; specific model in this crash may look slightly different
Boeing 737-8AS (WL)
Owner/operator:NordStar Airlines
Registration: VQ-BPM
C/n / msn: 33812/1615
Fatalities:Fatalities: 0 / Occupants: 107
Other fatalities:0
Aircraft damage: None
Category:Serious incident
Location:Noril'sk-Alykel Airport (NSK/UOOO) -   Russia
Phase: Landing
Nature:Domestic Scheduled Passenger
Departure airport:Krasnoyarsk-Yemelyanovo International Airport (KJA/UNKL)
Destination airport:Noril'sk Airport (NSK/UOOO)
Narrative:
NordStar Airlines flight Y7217 / TYA217 suffered a runway excursion after landing at Norilsk in the Krasnoyarsk Krai region of Russia.
After landing in a heavy snowstorm the Boeing 737-8AS, could not stop after the end of the runway.

Weather about the time of the incident (0625Z) was reported as:
UOOO 060630Z 28012MPS 1600 1100NE R19/1100D SHSN BLSN BKN005CB M05/M06 Q1003 R19/35//55 NOSIG RMK QFE736/0982
UOOO 060600Z 28012MPS 1300 1100NE R19/1100N SHSN BLSN BKN012CB M06/M07 Q1002 R19/422050 NOSIG RMK QFE736/0981

Sources:

http://www.goklerdeyiz.net/rusyada-boeing-737-pistten-cikti/
https://www.reuters.com/article/russia-airplane-boeing/boeing-737-slides-off-runway-in-russias-norilsk-idUSL5N22I20Z
http://www.luchtvaartnieuws.nl/nieuws/categorie/2/airlines/nordstar-boeing-737-schiet-van-de-baan-de-sneeuw-in (in Dutch)


Revision history:

Date/timeContributorUpdates
06-May-2019 10:40 Goklerdeyiz.net Added
06-May-2019 10:42 Captain Adam Updated [Total fatalities, Total occupants, Other fatalities, Location, Destination airport, Source, Damage, Narrative]
06-May-2019 12:38 RobertMB Updated [Departure airport, Source, Narrative]
06-May-2019 17:58 harro Updated [Operator, Narrative]
06-May-2019 18:00 harro Updated [Aircraft type, Cn, Location]
06-May-2019 18:00 harro Updated [Narrative]
06-May-2019 18:08 harro Updated [Source]
06-May-2019 18:11 harro Updated [Time, Narrative]
06-May-2019 18:15 harro Updated [Narrative]

Corrections or additions? ... Edit this accident description